Riga, Letland

7:33 AM EET op 22 december 2014 (GMT +0200)
Baltic Container Terminal | Change Station
CLOSE
Current Station
Persoonlijk weerstation
Location: Rīga, RīGAS PILSēTA
Geometrische hoogte: 3 ft
Nabije weerstations

Hoogte 3 ft 57.01 °N, 24.10 °E | Updated 10 minutes ago

Light Snow
Lichte sneeuw
33.3 °F
Voelt als 26 °F
N
9.0
Wind Variabel Wind van ZO
Gusts 11.0 mijl/u

Vandaag
Hoog -- | Laag -- °F
--% Kans op neerslag
Gisteren
Hoog -- | Laag -- °F
Precip. -- inches
9:00 AM 3:43 PM
Nieuwe maan, 0% visible
Druk 29.42 inches
Zicht 4.3 mijlen
Wolken Merendeels bewolkt 300 ft
Geheel bewolkt 1300 ft
Gevoelstemperatuur 26 °F
Dauwpunt 32 °F
Vochtigheid 96%
Neerslag 0.00 inches
Dikte sneeuw Niet beschikbaar.
UV 0 van de 12
Pollen Niet beschikbaar.
Luchtkwaliteit Niet beschikbaar.
Flu Activity Niet beschikbaar.
METAR EVRA 220520Z 16007KT 7000 -SN BKN003 OVC013 00/00 Q0996 R18/490294 TEMPO 4000

More Conditions Fewer Conditions

Druk 29.42 inches
Zicht 4.3 mijlen
Wolken Merendeels bewolkt 300 ft
Geheel bewolkt 1300 ft
Gevoelstemperatuur 26 °F
Dauwpunt 32 °F
Vochtigheid 96%
Neerslag 0.00 inches
Dikte sneeuw Niet beschikbaar.
UV 0 van de 12
Pollen Niet beschikbaar.
Luchtkwaliteit Niet beschikbaar.
Flu Activity Niet beschikbaar.
METAR EVRA 220520Z 16007KT 7000 -SN BKN003 OVC013 00/00 Q0996 R18/490294 TEMPO 4000

More Conditions Fewer Conditions

10-Day Weather Forecast

Almanac

Astronomie

Dec. 22, 2014 Opkomst Ondergang
Werkelijke tijd
Burgerlijke schemering
Nautische schemering
Astronomische schemering
Maan
Golflengte van het zichtbare licht
Daglengte
Tomorrow will be .
, % of the Moon is Illuminated

Extremen vandaag

Country Highs Country Lows

Community

WunderPhotos

Upload Photos

1,779,549 foto’s ge-upload!

WunderBlogs® & News

Nearby

Luchtkwaliteit

  Luchtkwaliteit LK-index Verontreinigende stof
Not available.

Dikte sneeuw

Station Depth Geometrische hoogte

Aardbevingen

Stad Distance Mag. Time & Date
Minimum magnitude displayed is 2.5.

Watertemperatuur langs de kust

Plaats Temperatuur

Nabije weerstations